ADDS METAR Data INFO
IDs: Format: Raw Decoded Include TAF

Data at: 1921 UTC 23 Apr 2018

KBDU 231912Z AUTO 03004KT 10SM BKN110 18/05 A3003 RMK AO2
KBDU 231851Z AUTO 08005KT 10SM CLR 17/05 A3003 RMK AO2
KBDU 231834Z AUTO 05004KT 10SM CLR 17/05 A3004 RMK AO2
KBDU 231811Z AUTO 10005KT 10SM CLR 16/04 A3005 RMK AO2
KBDU 231753Z AUTO 09004KT 10SM CLR 16/04 A3006 RMK AO2
KBDU 231735Z AUTO 12003KT 10SM CLR 15/03 A3007 RMK AO2
KBDU 231712Z AUTO 05004KT 10SM CLR 15/03 A3007 RMK AO2
KBDU 231652Z AUTO 00000KT 10SM CLR 13/03 A3007 RMK AO2
KBDU 231635Z AUTO 00000KT 10SM CLR 13/03 A3008 RMK AO2
KBDU 231612Z AUTO 10003KT 10SM CLR 13/05 A3008 RMK AO2
KBDU 231554Z AUTO 07003KT 10SM CLR 12/04 A3008 RMK AO2
KBDU 231530Z AUTO 11003KT 10SM CLR 11/03 A3008 RMK AO2
KBDU 231512Z AUTO 00000KT 10SM CLR 10/04 A3008 RMK AO2
KBDU 231454Z AUTO 00000KT 10SM CLR 10/05 A3008 RMK AO2
KBDU 231430Z AUTO 00000KT 10SM CLR 08/05 A3009 RMK AO2
KBDU 231412Z AUTO 10003KT 10SM CLR 08/03 A3009 RMK AO2
KBDU 231354Z AUTO 00000KT 10SM CLR 07/03 A3009 RMK AO2
KBDU 231330Z AUTO 00000KT 10SM CLR 06/03 A3010 RMK AO2
KBDU 231312Z AUTO 00000KT 10SM CLR 05/03 A3010 RMK AO2
KBDU 231253Z AUTO 00000KT 10SM CLR 05/03 A3009 RMK AO2
KBDU 231235Z AUTO 00000KT 10SM CLR 05/03 A3009 RMK AO2
KBDU 231213Z AUTO 00000KT 10SM CLR 05/03 A3009 RMK AO2
KBDU 231154Z AUTO 00000KT 10SM CLR 05/03 A3009 RMK AO2
KBDU 231130Z AUTO 00000KT 10SM CLR 05/03 A3009 RMK AO2
KBDU 231112Z AUTO 00000KT 10SM CLR 05/03 A3009 RMK AO2
KBDU 231053Z AUTO 00000KT 10SM CLR 05/03 A3009 RMK AO2
KBDU 231030Z AUTO 00000KT 10SM CLR 05/03 A3009 RMK AO2
KBDU 231012Z AUTO 00000KT 10SM CLR 05/03 A3009 RMK AO2
KBDU 230952Z AUTO 29003KT 10SM SCT120 06/03 A3009 RMK AO2
KBDU 230935Z AUTO 00000KT 10SM SCT120 06/03 A3010 RMK AO2
KBDU 230912Z AUTO 00000KT 10SM SCT120 06/02 A3010 RMK AO2
KBDU 230854Z AUTO 02004KT 10SM SCT120 06/02 A3009 RMK AO2
KBDU 230830Z AUTO 06005KT 10SM CLR 07/02 A3009 RMK AO2
KBDU 230812Z AUTO 00000KT 10SM CLR 08/02 A3008 RMK AO2
KBDU 230754Z AUTO 25003KT 10SM CLR 08/02 A3009 RMK AO2
KBDU 230730Z AUTO 24004KT 10SM CLR 08/02 A3010 RMK AO2
KBDU 230712Z AUTO 22004KT 10SM CLR 08/03 A3010 RMK AO2
KBDU 230654Z AUTO 00000KT 10SM CLR 08/02 A3010 RMK AO2
KBDU 230630Z AUTO 00000KT 10SM CLR 08/02 A3011 RMK AO2
KBDU 230612Z AUTO 00000KT 10SM CLR 08/02 A3011 RMK AO2
KBDU 230552Z AUTO 00000KT 10SM CLR 08/02 A3011 RMK AO2
KBDU 230530Z AUTO 00000KT 10SM CLR 09/02 A3011 RMK AO2
KBDU 230512Z AUTO 00000KT 10SM CLR 09/02 A3011 RMK AO2
KBDU 230454Z AUTO 00000KT 10SM CLR 10/02 A3012 RMK AO2
KBDU 230430Z AUTO 00000KT 10SM CLR 11/02 A3012 RMK AO2
KBDU 230412Z AUTO 00000KT 10SM CLR 11/02 A3013 RMK AO2
KBDU 230354Z AUTO 00000KT 10SM CLR 11/03 A3013 RMK AO2
KBDU 230330Z AUTO 00000KT 10SM CLR 12/02 A3013 RMK AO2
KBDU 230312Z AUTO 22003KT 10SM CLR 12/02 A3013 RMK AO2
KBDU 230254Z AUTO 22003KT 10SM CLR 13/02 A3012 RMK AO2
KBDU 230230Z AUTO 00000KT 10SM CLR 14/00 A3011 RMK AO2
KBDU 230212Z AUTO 00000KT 10SM CLR 14/00 A3010 RMK AO2
KBDU 230154Z AUTO 06004KT 10SM CLR 15/00 A3010 RMK AO2
KBDU 230130Z AUTO 06004KT 10SM CLR 15/00 A3009 RMK AO2
KBDU 230112Z AUTO 06004KT 10SM CLR 16/01 A3009 RMK AO2
KBDU 230055Z AUTO 06003KT 10SM CLR 17/01 A3009 RMK AO2
KBDU 230031Z AUTO 07006KT 10SM CLR 17/01 A3009 RMK AO2
KBDU 230013Z AUTO 12003KT 10SM CLR 17/01 A3009 RMK AO2
KBDU 222354Z AUTO 09003KT 10SM CLR 17/01 A3009 RMK AO2
KBDU 222330Z AUTO 13004KT 10SM CLR 17/01 A3009 RMK AO2
KBDU 222312Z AUTO 12004KT 10SM CLR 17/01 A3010 RMK AO2
KBDU 222254Z AUTO 10004KT 10SM CLR 18/01 A3010 RMK AO2
KBDU 222230Z AUTO 00000KT 10SM CLR 17/01 A3010 RMK AO2
KBDU 222212Z AUTO 14005KT 10SM CLR 17/01 A3011 RMK AO2
KBDU 222152Z AUTO 00000KT 10SM CLR 17/01 A3012 RMK AO2
KBDU 222135Z AUTO 11006KT 10SM CLR 17/01 A3012 RMK AO2
KBDU 222112Z AUTO 00000KT 10SM CLR 17/01 A3013 RMK AO2
KBDU 222051Z AUTO 08005KT 10SM CLR 17/01 A3013 RMK AO2
KBDU 222034Z AUTO 15003KT 10SM CLR 16/01 A3014 RMK AO2
KBDU 222012Z AUTO 07008KT 10SM CLR 17/01 A3015 RMK AO2
KBDU 221951Z AUTO 06007KT 10SM CLR 16/01 A3015 RMK AO2
KBDU 221934Z AUTO 06003KT 10SM CLR 16/02 A3015 RMK AO2
KBDU 221912Z AUTO 08004KT 10SM CLR 16/02 A3016 RMK AO2
KBDU 221853Z AUTO 12003KT 10SM CLR 15/02 A3017 RMK AO2
KBDU 221835Z AUTO 06005KT 10SM CLR 15/02 A3017 RMK AO2
KBDU 221812Z AUTO 10003KT 10SM CLR 14/03 A3018 RMK AO2
KBDU 221753Z AUTO 08004KT 10SM CLR 13/04 A3018 RMK AO2
KBDU 221735Z AUTO 10004KT 10SM CLR 12/04 A3018 RMK AO2
KBDU 221712Z AUTO 12003KT 10SM CLR 12/03 A3018 RMK AO2
KBDU 221652Z AUTO 00000KT 10SM CLR 11/04 A3018 RMK AO2
KBDU 221634Z AUTO 00000KT 10SM CLR 10/04 A3018 RMK AO2
KBDU 221611Z AUTO 00000KT 10SM CLR 09/03 A3018 RMK AO2
KBDU 221554Z AUTO 00000KT 10SM CLR 08/03 A3018 RMK AO2
KBDU 221530Z AUTO 00000KT 10SM CLR 07/02 A3018 RMK AO2
KBDU 221512Z AUTO 10003KT 10SM CLR 06/03 A3018 RMK AO2
KBDU 221454Z AUTO 00000KT 10SM CLR 06/02 A3018 RMK AO2
KBDU 221430Z AUTO 00000KT 10SM CLR 05/02 A3018 RMK AO2
KBDU 221412Z AUTO 00000KT 10SM CLR 03/01 A3018 RMK AO2
KBDU 221354Z AUTO 00000KT 10SM CLR 02/01 A3018 RMK AO2
KBDU 221330Z AUTO 00000KT 10SM CLR 01/01 A3017 RMK AO2
KBDU 221312Z AUTO 00000KT 5SM BR CLR 01/01 A3016 RMK AO2
KBDU 221255Z AUTO 00000KT 7SM CLR 00/00 A3016 RMK AO2
KBDU 221231Z AUTO 00000KT 4SM BR CLR 00/00 A3015 RMK AO2
KBDU 221213Z AUTO 00000KT 5SM BR CLR 00/00 A3015 RMK AO2
KBDU 221154Z AUTO 00000KT 5SM BR CLR 00/00 A3015 RMK AO2
KBDU 221130Z AUTO 00000KT 1 1/4SM BR VV007 00/00 A3014 RMK AO2 VIS 1/2V5
KBDU 221112Z AUTO 00000KT 10SM CLR 00/00 A3014 RMK AO2
KBDU 221053Z AUTO 00000KT 10SM CLR 00/00 A3015 RMK AO2
KBDU 221030Z AUTO 00000KT 10SM CLR 01/01 A3015 RMK AO2
KBDU 221012Z AUTO 26003KT 10SM CLR 00/00 A3015 RMK AO2
KBDU 220954Z AUTO 25004KT 10SM CLR 01/00 A3016 RMK AO2
KBDU 220930Z AUTO 09003KT 10SM CLR 01/01 A3015 RMK AO2
KBDU 220912Z AUTO 00000KT 10SM CLR 02/01 A3014 RMK AO2
KBDU 220854Z AUTO 00000KT 10SM CLR 01/00 A3014 RMK AO2
KBDU 220830Z AUTO 29005KT 10SM CLR 00/00 A3014 RMK AO2
KBDU 220812Z AUTO 29005KT 7SM CLR 00/00 A3014 RMK AO2
KBDU 220754Z AUTO 00000KT 2 1/2SM BR CLR 00/00 A3015 RMK AO2
KBDU 220730Z AUTO 12003KT 10SM CLR 01/00 A3014 RMK AO2